Time;durP1;ratioP1;P1;durP2;ratioP2;P2;SDS_P1;SDS_P2;PMS_P1;PMS_P2;Temp;Humidity;BMP_temperature;BMP_pressure;BME280_temperature;BME280_humidity;BME280_pressure;Samples;Min_cycle;Max_cycle;Signal;HPM_P1;HPM_P2
2023/02/17 00:01:22;;;;;;;26.50;21.20;;;9.40;99.90;;;;;;5073853;28;20455;-60
2023/02/17 00:03:49;;;;;;;25.47;20.23;;;9.40;99.90;;;;;;5074189;28;20931;-60
2023/02/17 00:06:20;;;;;;;26.03;19.67;;;9.30;99.90;;;;;;5074066;28;20448;-59
2023/02/17 00:08:47;;;;;;;25.33;20.70;;;9.30;99.90;;;;;;5073826;28;20550;-59
2023/02/17 00:11:15;;;;;;;27.00;20.27;;;9.30;99.90;;;;;;5073916;28;20797;-60
2023/02/17 00:13:42;;;;;;;26.70;21.37;;;9.30;99.90;;;;;;5073734;28;20443;-60
2023/02/17 00:16:09;;;;;;;27.70;21.40;;;9.30;99.90;;;;;;5074043;28;20795;-60
2023/02/17 00:18:36;;;;;;;29.50;22.00;;;9.30;99.90;;;;;;5073764;28;20501;-59
2023/02/17 00:21:12;;;;;;;26.60;21.50;;;9.30;99.90;;;;;;5073794;28;20452;-59
2023/02/17 00:23:40;;;;;;;26.77;19.23;;;9.40;99.90;;;;;;5073687;28;21028;-59
2023/02/17 00:26:07;;;;;;;25.37;20.27;;;9.40;99.90;;;;;;5073461;28;20935;-59
2023/02/17 00:28:34;;;;;;;27.87;20.97;;;9.40;99.90;;;;;;5073800;28;20470;-59
2023/02/17 00:31:06;;;;;;;26.47;20.97;;;9.40;99.90;;;;;;5073413;28;20888;-59
2023/02/17 00:33:32;;;;;;;25.83;21.43;;;9.30;99.90;;;;;;5073563;28;20448;-59
2023/02/17 00:35:59;;;;;;;27.30;21.07;;;9.30;99.90;;;;;;5073460;28;20443;-59
2023/02/17 00:38:26;;;;;;;27.53;21.80;;;9.20;99.90;;;;;;5073428;28;20942;-59
2023/02/17 00:40:53;;;;;;;27.43;22.13;;;9.20;99.90;;;;;;5073247;28;21004;-60
2023/02/17 00:43:20;;;;;;;28.50;21.40;;;9.20;99.90;;;;;;5073532;28;20505;-60
2023/02/17 00:45:47;;;;;;;29.80;23.53;;;9.20;99.90;;;;;;5073356;28;20448;-60
2023/02/17 00:48:13;;;;;;;28.83;22.90;;;9.10;99.90;;;;;;5073189;28;20970;-60
2023/02/17 00:50:40;;;;;;;29.63;21.67;;;9.10;99.90;;;;;;5073263;28;20452;-60
2023/02/17 00:53:07;;;;;;;29.90;20.40;;;9.00;99.90;;;;;;5073195;28;20922;-60
2023/02/17 00:55:33;;;;;;;28.53;21.80;;;9.10;99.90;;;;;;5073117;28;20997;-60
2023/02/17 00:58:01;;;;;;;35.50;22.63;;;9.20;99.90;;;;;;5073253;28;20505;-60
2023/02/17 01:00:28;;;;;;;28.37;23.33;;;9.10;99.90;;;;;;5073090;28;20562;-60
2023/02/17 01:02:54;;;;;;;28.93;22.40;;;9.10;99.90;;;;;;5073040;28;21044;-60
2023/02/17 01:05:21;;;;;;;33.17;22.60;;;9.10;99.90;;;;;;5072870;28;20452;-60
2023/02/17 01:07:47;;;;;;;27.40;21.93;;;9.10;99.90;;;;;;5072892;28;20476;-60
2023/02/17 01:10:14;;;;;;;28.17;22.03;;;9.10;99.90;;;;;;5073108;28;20459;-60
2023/02/17 01:12:41;;;;;;;30.40;23.33;;;9.10;99.90;;;;;;5072800;28;20478;-60
2023/02/17 01:15:10;;;;;;;29.33;23.67;;;9.10;99.90;;;;;;5072988;28;20436;-60
2023/02/17 01:17:37;;;;;;;33.20;22.73;;;9.10;99.90;;;;;;5072901;28;20858;-60
2023/02/17 01:20:05;;;;;;;28.40;22.63;;;9.10;99.90;;;;;;5072808;28;20479;-60
2023/02/17 01:22:31;;;;;;;27.83;20.90;;;9.10;99.90;;;;;;5072837;28;20448;-60
2023/02/17 01:24:58;;;;;;;29.90;22.37;;;9.10;99.90;;;;;;5072757;28;20487;-60
2023/02/17 01:27:24;;;;;;;29.53;22.57;;;9.10;99.90;;;;;;5072923;28;20482;-60
2023/02/17 01:29:51;;;;;;;28.80;23.03;;;9.10;99.90;;;;;;5072965;28;20497;-60
2023/02/17 01:32:19;;;;;;;28.33;21.40;;;9.20;99.90;;;;;;5072777;28;20452;-60
2023/02/17 01:34:47;;;;;;;26.73;21.40;;;9.10;99.90;;;;;;5072646;28;20452;-60
2023/02/17 01:37:14;;;;;;;30.40;22.37;;;9.20;99.90;;;;;;5072599;28;20483;-60
2023/02/17 01:39:41;;;;;;;30.30;21.10;;;9.20;99.90;;;;;;5072851;28;20479;-60
2023/02/17 01:42:14;;;;;;;28.83;22.30;;;9.20;99.90;;;;;;5072753;28;20959;-60
2023/02/17 01:45:14;;;;;;;26.60;21.20;;;9.20;99.90;;;;;;5072736;28;20479;-60
2023/02/17 01:47:42;;;;;;;26.67;21.33;;;9.20;99.90;;;;;;5072805;28;20474;-60
2023/02/17 01:50:10;;;;;;;28.30;22.30;;;9.10;99.90;;;;;;5072730;28;20448;-60
2023/02/17 01:52:38;;;;;;;29.90;22.00;;;9.10;99.90;;;;;;5072596;28;20485;-60
2023/02/17 01:55:10;;;;;;;28.70;21.90;;;9.10;99.90;;;;;;5072582;28;20534;-62
2023/02/17 01:57:39;;;;;;;26.23;20.63;;;9.10;99.90;;;;;;5072446;28;20530;-60
2023/02/17 02:00:10;;;;;;;33.20;23.03;;;9.00;99.90;;;;;;5072648;28;20835;-60
2023/02/17 02:02:37;;;;;;;25.97;21.00;;;9.00;99.90;;;;;;5072674;28;20490;-60
2023/02/17 02:05:05;;;;;;;31.90;22.47;;;9.00;99.90;;;;;;5072478;28;20440;-60
2023/02/17 02:07:34;;;;;;;30.50;22.90;;;9.00;99.90;;;;;;5072533;28;20855;-60
2023/02/17 02:10:01;;;;;;;25.80;20.40;;;9.00;99.90;;;;;;5072372;28;20885;-60
2023/02/17 02:12:30;;;;;;;27.80;22.40;;;9.00;99.90;;;;;;5072238;28;20476;-60
2023/02/17 02:15:00;;;;;;;26.90;20.67;;;9.00;99.90;;;;;;5072476;28;20552;-60
2023/02/17 02:17:36;;;;;;;28.33;22.07;;;9.00;99.90;;;;;;5075715;28;20482;-60
2023/02/17 02:20:34;;;;;;;27.53;20.53;;;9.00;99.90;;;;;;5075996;28;20830;-60
2023/02/17 02:23:27;;;;;;;28.50;21.40;;;9.00;99.90;;;;;;5075944;28;20447;-60
2023/02/17 02:26:25;;;;;;;23.93;20.20;;;9.00;99.90;;;;;;5072151;28;20454;-60
2023/02/17 02:29:10;;;;;;;26.97;21.20;;;9.00;99.90;;;;;;5075906;28;20793;-60
2023/02/17 02:31:45;;;;;;;26.57;20.83;;;9.00;99.90;;;;;;5076133;28;20451;-60
2023/02/17 02:34:18;;;;;;;27.23;21.13;;;9.00;99.90;;;;;;5076135;28;20446;-60
2023/02/17 02:36:48;;;;;;;30.37;21.77;;;9.00;99.90;;;;;;5075838;28;20448;-60
2023/02/17 02:39:18;;;;;;;29.57;22.43;;;8.90;99.90;;;;;;5075664;28;20456;-60
2023/02/17 02:41:48;;;;;;;30.50;22.50;;;9.00;99.90;;;;;;5075840;28;20958;-60
2023/02/17 02:44:18;;;;;;;31.50;22.87;;;9.00;99.90;;;;;;5075738;28;20495;-60
2023/02/17 02:46:44;;;;;;;30.43;21.60;;;9.10;99.90;;;;;;5075765;28;20443;-60
2023/02/17 02:49:13;;;;;;;35.00;22.23;;;9.00;99.90;;;;;;5075651;28;20487;-60
2023/02/17 02:51:49;;;;;;;29.30;23.20;;;9.00;99.90;;;;;;5075475;28;20538;-60
2023/02/17 02:54:20;;;;;;;29.43;22.93;;;9.00;99.90;;;;;;5075632;28;20482;-60
2023/02/17 02:56:59;;;;;;;30.70;21.93;;;9.00;99.90;;;;;;5075485;28;20535;-60
2023/02/17 02:59:38;;;;;;;33.27;24.57;;;9.00;99.90;;;;;;5075332;28;20448;-59
2023/02/17 03:02:14;;;;;;;33.30;24.80;;;8.90;99.90;;;;;;5075299;28;20509;-61
2023/02/17 03:04:50;;;;;;;34.97;25.00;;;8.80;99.90;;;;;;5075460;28;20464;-59
2023/02/17 03:07:23;;;;;;;33.87;23.60;;;8.70;99.90;;;;;;5075357;28;20452;-60
2023/02/17 03:09:51;;;;;;;32.97;25.63;;;8.80;99.90;;;;;;5075186;28;20481;-59
2023/02/17 03:12:18;;;;;;;29.90;24.07;;;8.80;99.90;;;;;;5074883;28;20919;-59
2023/02/17 03:14:47;;;;;;;31.53;24.70;;;8.80;99.90;;;;;;5075006;28;20488;-59
2023/02/17 03:17:14;;;;;;;33.30;25.23;;;8.80;99.90;;;;;;5074917;28;20986;-59
2023/02/17 03:19:44;;;;;;;34.80;25.10;;;8.80;99.90;;;;;;5074970;28;20970;-59
2023/02/17 03:22:19;;;;;;;35.07;25.40;;;8.80;99.90;;;;;;5075218;28;20479;-60
2023/02/17 03:24:45;;;;;;;30.80;23.07;;;8.80;99.90;;;;;;5074990;28;20454;-59
2023/02/17 03:27:12;;;;;;;30.90;23.37;;;8.90;99.90;;;;;;5074632;28;20928;-59
2023/02/17 03:29:39;;;;;;;35.47;24.87;;;8.90;99.90;;;;;;5074684;28;20452;-60
2023/02/17 03:32:06;;;;;;;32.23;24.43;;;8.90;99.90;;;;;;5074809;28;20498;-60
2023/02/17 03:34:33;;;;;;;35.53;24.53;;;8.80;99.90;;;;;;5074652;28;20503;-60
2023/02/17 03:37:00;;;;;;;34.20;25.47;;;8.80;99.90;;;;;;5074637;28;20488;-59
2023/02/17 03:39:28;;;;;;;31.87;23.83;;;8.80;99.90;;;;;;5074390;28;20447;-59
2023/02/17 03:41:54;;;;;;;37.30;26.37;;;8.80;99.90;;;;;;5074468;28;20669;-60
2023/02/17 03:44:21;;;;;;;34.20;23.87;;;8.80;99.90;;;;;;5074585;28;20477;-59
2023/02/17 03:46:47;;;;;;;34.77;25.03;;;8.80;99.90;;;;;;5074449;28;20487;-59
2023/02/17 03:49:14;;;;;;;31.50;24.33;;;8.80;99.90;;;;;;5074411;28;20455;-59
2023/02/17 03:51:41;;;;;;;33.00;24.77;;;8.70;99.90;;;;;;5074362;28;20497;-59
2023/02/17 03:54:07;;;;;;;35.47;25.50;;;8.80;99.90;;;;;;5074243;28;20449;-60
2023/02/17 03:56:35;;;;;;;36.60;26.77;;;8.80;99.90;;;;;;5074163;28;20971;-59
2023/02/17 03:59:02;;;;;;;36.60;27.23;;;8.80;99.90;;;;;;5074336;28;20448;-60
2023/02/17 04:01:28;;;;;;;36.40;25.53;;;8.80;99.90;;;;;;5074140;28;20484;-61
2023/02/17 04:03:55;;;;;;;33.57;24.57;;;8.80;99.90;;;;;;5074039;28;20459;-60
2023/02/17 04:06:22;;;;;;;35.60;25.67;;;8.80;99.90;;;;;;5073941;28;20484;-60
2023/02/17 04:08:48;;;;;;;34.70;27.10;;;8.80;99.90;;;;;;5074379;28;20491;-59
2023/02/17 04:11:15;;;;;;;36.60;26.43;;;8.70;99.90;;;;;;5073718;28;20495;-59
2023/02/17 04:13:43;;;;;;;38.93;27.50;;;8.70;99.90;;;;;;5073973;28;20494;-59
2023/02/17 04:16:10;;;;;;;33.70;23.87;;;8.70;99.90;;;;;;5073907;28;20531;-59
2023/02/17 04:18:37;;;;;;;33.77;26.43;;;8.70;99.90;;;;;;5073713;28;20448;-61
2023/02/17 04:21:05;;;;;;;38.07;28.37;;;8.70;99.90;;;;;;5073634;28;20480;-59
2023/02/17 04:23:31;;;;;;;35.17;26.73;;;8.70;99.90;;;;;;5073590;28;20531;-59
2023/02/17 04:25:58;;;;;;;37.00;27.67;;;8.70;99.90;;;;;;5073495;28;20451;-59
2023/02/17 04:28:25;;;;;;;40.50;26.87;;;8.60;99.90;;;;;;5073717;28;20501;-59
2023/02/17 04:30:53;;;;;;;35.70;28.17;;;8.60;99.90;;;;;;5073655;28;20545;-60
2023/02/17 04:33:19;;;;;;;37.13;27.63;;;8.60;99.90;;;;;;5073257;28;20998;-60
2023/02/17 04:35:47;;;;;;;38.60;26.40;;;8.60;99.90;;;;;;5073436;28;20448;-60
2023/02/17 04:38:14;;;;;;;38.33;27.00;;;8.60;99.90;;;;;;5072682;28;20448;-60
2023/02/17 04:40:41;;;;;;;36.03;26.17;;;8.70;99.90;;;;;;5073403;28;20570;-60
2023/02/17 04:43:08;;;;;;;36.70;25.47;;;8.60;99.90;;;;;;5073418;28;20451;-60
2023/02/17 04:45:34;;;;;;;36.67;26.70;;;8.70;99.90;;;;;;5073408;28;20519;-60
2023/02/17 04:48:03;;;;;;;40.10;27.20;;;8.70;99.90;;;;;;5073237;28;20900;-59
2023/02/17 04:50:29;;;;;;;36.90;26.77;;;8.70;99.90;;;;;;5073233;28;20939;-59
2023/02/17 04:52:56;;;;;;;36.83;25.67;;;8.70;99.90;;;;;;5073179;28;20496;-59
2023/02/17 04:55:22;;;;;;;37.87;27.87;;;8.70;99.90;;;;;;5073109;28;20459;-59
2023/02/17 04:57:49;;;;;;;36.97;27.47;;;8.80;99.90;;;;;;5073316;28;20447;-60
2023/02/17 05:00:16;;;;;;;35.10;26.20;;;8.70;99.90;;;;;;5073037;28;20471;-59
2023/02/17 05:02:42;;;;;;;35.60;26.33;;;8.70;99.90;;;;;;5073050;28;20789;-59
2023/02/17 05:05:13;;;;;;;40.30;27.50;;;8.80;99.90;;;;;;5072968;28;20482;-60
2023/02/17 05:07:40;;;;;;;32.23;24.87;;;8.80;99.90;;;;;;5073244;28;20454;-60
2023/02/17 05:10:08;;;;;;;32.10;24.77;;;8.80;99.90;;;;;;5073135;28;20534;-59
2023/02/17 05:12:34;;;;;;;36.97;26.37;;;8.80;99.90;;;;;;5072926;28;21010;-59
2023/02/17 05:15:01;;;;;;;35.77;26.60;;;8.80;99.90;;;;;;5072973;28;20451;-60
2023/02/17 05:17:28;;;;;;;37.53;27.90;;;8.70;99.90;;;;;;5072954;28;20491;-59
2023/02/17 05:19:54;;;;;;;31.07;25.30;;;8.80;99.90;;;;;;5072809;28;20496;-60
2023/02/17 05:22:22;;;;;;;37.00;26.20;;;8.80;99.90;;;;;;5072917;28;20625;-59
2023/02/17 05:24:49;;;;;;;39.80;27.43;;;8.80;99.90;;;;;;5072917;28;20549;-59
2023/02/17 05:27:16;;;;;;;35.27;26.20;;;8.80;99.90;;;;;;5072851;28;20452;-59
2023/02/17 05:29:42;;;;;;;34.63;25.03;;;8.80;99.90;;;;;;5072741;28;20505;-59
2023/02/17 05:32:09;;;;;;;36.47;26.40;;;8.70;99.90;;;;;;5072722;28;20451;-60
2023/02/17 05:34:35;;;;;;;32.80;24.73;;;8.80;99.90;;;;;;5072922;28;20926;-59
2023/02/17 05:37:02;;;;;;;37.17;26.33;;;8.80;99.90;;;;;;5072794;28;20454;-59
2023/02/17 05:39:30;;;;;;;37.57;26.50;;;8.80;99.90;;;;;;5072815;28;20451;-59
2023/02/17 05:41:57;;;;;;;29.80;22.73;;;8.80;99.90;;;;;;5072528;28;20529;-60
2023/02/17 05:44:24;;;;;;;34.47;24.60;;;8.90;99.90;;;;;;5072624;28;20478;-59
2023/02/17 05:46:50;;;;;;;35.70;26.50;;;8.80;99.90;;;;;;5072495;28;20448;-60
2023/02/17 05:49:17;;;;;;;36.53;26.03;;;8.80;99.90;;;;;;5073027;28;20444;-59
2023/02/17 05:51:44;;;;;;;34.53;25.97;;;8.90;99.90;;;;;;5076672;28;20478;-60
2023/02/17 05:54:10;;;;;;;36.63;26.13;;;8.90;99.90;;;;;;5076565;28;20479;-60
2023/02/17 05:56:38;;;;;;;32.77;24.57;;;9.00;99.90;;;;;;5076506;28;20482;-59
2023/02/17 05:59:04;;;;;;;35.73;25.63;;;9.00;99.90;;;;;;5076390;28;20448;-60
2023/02/17 06:01:31;;;;;;;33.87;26.43;;;9.00;99.90;;;;;;5076113;28;20511;-59
2023/02/17 06:03:58;;;;;;;32.90;24.50;;;9.10;99.90;;;;;;5076451;28;20534;-59
2023/02/17 06:06:24;;;;;;;36.20;25.93;;;9.10;99.90;;;;;;5076351;28;20458;-59
2023/02/17 06:08:51;;;;;;;33.60;24.17;;;9.20;99.90;;;;;;5076228;28;20482;-59
2023/02/17 06:11:17;;;;;;;34.20;26.47;;;9.20;99.90;;;;;;5075914;28;20491;-60
2023/02/17 06:13:46;;;;;;;34.47;25.90;;;9.30;99.90;;;;;;5076056;28;20466;-60
2023/02/17 06:16:12;;;;;;;34.50;26.47;;;9.30;99.90;;;;;;5076049;28;20444;-60
2023/02/17 06:18:39;;;;;;;33.97;24.37;;;9.30;99.90;;;;;;5076062;28;20745;-59
2023/02/17 06:21:06;;;;;;;31.60;24.10;;;9.20;99.90;;;;;;5075939;28;20467;-59
2023/02/17 06:23:32;;;;;;;32.47;25.03;;;9.30;99.90;;;;;;5075971;28;20479;-59
2023/02/17 06:25:59;;;;;;;28.30;22.87;;;9.30;99.90;;;;;;5075950;28;20521;-59
2023/02/17 06:28:26;;;;;;;29.63;23.57;;;9.30;99.90;;;;;;5075805;28;20505;-60
2023/02/17 06:30:54;;;;;;;37.10;26.10;;;9.30;99.90;;;;;;5075708;28;20820;-59
2023/02/17 06:33:20;;;;;;;34.83;26.20;;;9.30;99.90;;;;;;5075787;28;20451;-59
2023/02/17 06:35:51;;;;;;;37.10;25.87;;;9.30;99.90;;;;;;5075758;28;20459;-60
2023/02/17 06:38:18;;;;;;;30.07;23.67;;;9.30;99.90;;;;;;5075538;28;20509;-61
2023/02/17 06:40:45;;;;;;;31.90;23.27;;;9.30;99.90;;;;;;5075557;28;20475;-59
2023/02/17 06:43:11;;;;;;;32.17;23.87;;;9.40;99.90;;;;;;5075473;28;20452;-61
2023/02/17 06:45:38;;;;;;;33.93;25.30;;;9.40;99.90;;;;;;5075394;28;20428;-61
2023/02/17 06:48:06;;;;;;;31.53;24.37;;;9.30;99.90;;;;;;5075443;28;20448;-61
2023/02/17 06:50:33;;;;;;;32.03;25.00;;;9.30;99.90;;;;;;5075495;28;20447;-61
2023/02/17 06:52:59;;;;;;;31.33;24.67;;;9.20;99.90;;;;;;5075470;28;20507;-61
2023/02/17 06:55:26;;;;;;;30.57;23.50;;;9.20;99.90;;;;;;5075300;28;20547;-61
2023/02/17 06:57:52;;;;;;;26.70;22.37;;;9.20;99.90;;;;;;5075143;28;20854;-60
2023/02/17 07:00:20;;;;;;;32.77;23.23;;;9.30;99.90;;;;;;5075352;28;20444;-60
2023/02/17 07:02:47;;;;;;;29.17;23.67;;;9.20;99.90;;;;;;5074580;28;20495;-60
2023/02/17 07:05:15;;;;;;;29.37;21.97;;;9.30;99.90;;;;;;5075194;28;20807;-60
2023/02/17 07:07:41;;;;;;;31.33;22.80;;;9.20;99.90;;;;;;5075121;28;20440;-59
2023/02/17 07:10:09;;;;;;;26.87;21.83;;;9.20;99.90;;;;;;5074944;28;20450;-60
2023/02/17 07:12:35;;;;;;;30.67;22.67;;;9.30;99.90;;;;;;5074880;28;20468;-60
2023/02/17 07:15:02;;;;;;;31.80;21.50;;;9.30;99.90;;;;;;5074727;28;21043;-60
2023/02/17 07:17:28;;;;;;;28.90;22.47;;;9.30;99.90;;;;;;5074988;28;20450;-59
2023/02/17 07:19:55;;;;;;;28.60;22.50;;;9.30;99.90;;;;;;5074644;28;20440;-59
2023/02/17 07:22:24;;;;;;;28.07;22.30;;;9.40;99.90;;;;;;5074541;28;20571;-59
2023/02/17 07:24:51;;;;;;;29.07;21.13;;;9.40;99.90;;;;;;5074770;28;20538;-59
2023/02/17 07:27:17;;;;;;;26.13;22.20;;;9.50;99.90;;;;;;5074890;28;20857;-59
2023/02/17 07:29:44;;;;;;;26.90;21.83;;;9.50;99.90;;;;;;5074593;28;20954;-60
2023/02/17 07:32:10;;;;;;;27.67;21.60;;;9.50;99.90;;;;;;5074595;28;20892;-60
2023/02/17 07:34:37;;;;;;;26.40;21.60;;;9.50;99.90;;;;;;5074282;28;20452;-60
2023/02/17 07:37:04;;;;;;;28.17;21.47;;;9.50;99.90;;;;;;5074449;28;20448;-62
2023/02/17 07:39:33;;;;;;;26.50;21.87;;;9.40;99.90;;;;;;5074320;28;20543;-62
2023/02/17 07:42:00;;;;;;;29.33;22.50;;;9.50;99.90;;;;;;5074517;28;20534;-62
2023/02/17 07:44:27;;;;;;;31.70;22.57;;;9.50;99.90;;;;;;5074414;28;20452;-62
2023/02/17 07:46:53;;;;;;;25.20;19.60;;;9.50;99.90;;;;;;5074347;28;20448;-62
2023/02/17 07:49:20;;;;;;;25.27;20.40;;;9.50;99.90;;;;;;5074335;28;20515;-62
2023/02/17 07:51:46;;;;;;;28.87;21.40;;;9.50;99.90;;;;;;5074189;28;20475;-62
2023/02/17 07:54:13;;;;;;;27.60;20.63;;;9.60;99.90;;;;;;5074362;28;20875;-62
2023/02/17 07:56:41;;;;;;;26.53;20.13;;;9.60;99.90;;;;;;5074250;28;20842;-62
2023/02/17 07:59:08;;;;;;;24.10;20.10;;;9.60;99.90;;;;;;5074196;28;20456;-62
2023/02/17 08:01:35;;;;;;;22.20;19.20;;;9.70;99.90;;;;;;5074008;28;20511;-62
2023/02/17 08:04:01;;;;;;;24.30;19.30;;;9.80;99.90;;;;;;5073891;28;20910;-62
2023/02/17 08:06:28;;;;;;;21.00;18.70;;;9.80;99.90;;;;;;5073964;28;20942;-62
2023/02/17 08:14:27;;;;;;;21.53;18.13;;;9.90;99.90;;;;;;5072942;28;20958;-62
2023/02/17 08:16:54;;;;;;;22.43;19.10;;;9.90;99.90;;;;;;5073582;28;20447;-62
2023/02/17 08:19:21;;;;;;;21.57;18.83;;;9.90;99.90;;;;;;5073931;28;20560;-62
2023/02/17 08:21:47;;;;;;;21.37;17.93;;;10.00;99.90;;;;;;5073727;28;20503;-62
2023/02/17 08:24:15;;;;;;;23.70;18.53;;;9.90;99.90;;;;;;5073710;28;20487;-62
2023/02/17 08:26:43;;;;;;;24.33;18.70;;;9.90;99.90;;;;;;5073628;28;20486;-62
2023/02/17 08:29:09;;;;;;;21.47;18.53;;;10.00;99.90;;;;;;5073959;28;20531;-62
2023/02/17 08:31:37;;;;;;;33.73;25.87;;;10.10;99.90;;;;;;5073348;28;20494;-62
2023/02/17 08:34:06;;;;;;;96.93;53.00;;;10.10;99.90;;;;;;5073503;28;20454;-62
2023/02/17 08:36:33;;;;;;;30.63;22.63;;;10.20;99.90;;;;;;5073514;28;20487;-62
2023/02/17 08:39:00;;;;;;;28.53;23.30;;;10.10;99.90;;;;;;5073463;28;20535;-62
2023/02/17 08:41:29;;;;;;;28.97;20.77;;;10.20;99.90;;;;;;5073368;28;20845;-62
2023/02/17 08:43:58;;;;;;;20.20;18.10;;;10.30;99.90;;;;;;5073109;28;20533;-62
2023/02/17 08:46:25;;;;;;;18.23;16.30;;;10.30;99.90;;;;;;5073288;28;20799;-62
2023/02/17 08:48:52;;;;;;;17.13;15.13;;;10.30;99.90;;;;;;5073358;28;20460;-62
2023/02/17 08:51:22;;;;;;;20.40;16.80;;;10.40;99.90;;;;;;5073241;28;20527;-62
2023/02/17 08:53:49;;;;;;;18.47;15.50;;;10.30;99.90;;;;;;5073145;28;20443;-62
2023/02/17 08:56:15;;;;;;;17.63;15.80;;;10.30;99.90;;;;;;5073119;28;20444;-62
2023/02/17 08:58:42;;;;;;;19.90;16.50;;;10.40;99.90;;;;;;5072962;28;20939;-62
2023/02/17 09:01:10;;;;;;;17.23;15.47;;;10.40;99.90;;;;;;5073012;28;20872;-62
2023/02/17 09:03:39;;;;;;;19.37;16.47;;;10.40;99.90;;;;;;5072810;28;20972;-62
2023/02/17 09:06:07;;;;;;;17.77;15.87;;;10.40;99.90;;;;;;5072918;28;20535;-59
2023/02/17 09:08:34;;;;;;;21.57;16.63;;;10.40;99.90;;;;;;5072834;28;20448;-60
2023/02/17 09:11:01;;;;;;;17.37;15.37;;;10.40;99.90;;;;;;5072507;28;20483;-59
2023/02/17 09:13:27;;;;;;;19.97;16.70;;;10.30;99.90;;;;;;5072484;28;20472;-59
2023/02/17 09:15:54;;;;;;;17.20;15.27;;;10.40;99.90;;;;;;5072604;28;20534;-60
2023/02/17 09:18:23;;;;;;;19.70;16.03;;;10.40;99.90;;;;;;5072555;28;20448;-60
2023/02/17 09:20:50;;;;;;;18.40;15.37;;;10.50;99.90;;;;;;5072898;28;20554;-61
2023/02/17 09:23:17;;;;;;;17.47;15.50;;;10.40;99.90;;;;;;5072741;28;20483;-61
2023/02/17 09:25:44;;;;;;;17.87;15.07;;;10.50;99.90;;;;;;5072259;28;20509;-60
2023/02/17 09:28:12;;;;;;;18.20;15.27;;;10.50;99.90;;;;;;5072729;28;21031;-60
2023/02/17 09:30:39;;;;;;;16.50;14.53;;;10.50;99.90;;;;;;5072867;28;20452;-60
2023/02/17 09:33:06;;;;;;;17.07;14.73;;;10.40;99.90;;;;;;5072713;28;20459;-61
2023/02/17 09:35:34;;;;;;;16.03;14.43;;;10.50;99.90;;;;;;5072455;28;20497;-59
2023/02/17 09:38:01;;;;;;;16.03;14.33;;;10.50;99.90;;;;;;5072561;28;20448;-60
2023/02/17 09:40:37;;;;;;;16.23;14.60;;;10.50;99.90;;;;;;5072735;28;20448;-61
2023/02/17 09:43:04;;;;;;;19.00;15.63;;;10.60;99.90;;;;;;5072538;28;20483;-60
2023/02/17 09:45:35;;;;;;;15.73;14.10;;;10.60;99.90;;;;;;5072414;28;20488;-59
2023/02/17 09:48:06;;;;;;;16.17;14.40;;;10.50;99.90;;;;;;5072454;28;20943;-59
2023/02/17 09:50:42;;;;;;;15.27;13.20;;;10.60;99.90;;;;;;5072428;28;20451;-60
2023/02/17 09:53:14;;;;;;;17.00;15.00;;;10.70;99.90;;;;;;5072586;28;20497;-60
2023/02/17 09:55:45;;;;;;;18.27;14.97;;;10.70;99.90;;;;;;5072614;28;20502;-59
2023/02/17 09:58:15;;;;;;;15.20;13.80;;;10.60;99.90;;;;;;5072465;28;20480;-60
2023/02/17 10:00:46;;;;;;;17.63;15.20;;;10.70;99.90;;;;;;5072231;28;20955;-59
2023/02/17 10:03:18;;;;;;;17.33;15.53;;;10.60;99.90;;;;;;5072193;28;20479;-59
2023/02/17 10:05:51;;;;;;;17.73;15.10;;;10.70;99.90;;;;;;5072538;28;20530;-60
2023/02/17 10:08:22;;;;;;;17.80;15.90;;;10.50;99.90;;;;;;5072405;28;20452;-60
2023/02/17 10:10:54;;;;;;;15.87;14.17;;;10.50;99.90;;;;;;5072262;28;20501;-59
2023/02/17 10:13:22;;;;;;;15.87;14.10;;;10.50;99.90;;;;;;5072163;28;20525;-60
2023/02/17 10:15:52;;;;;;;19.63;15.40;;;10.50;99.90;;;;;;5072196;28;20505;-60
2023/02/17 10:18:26;;;;;;;16.57;14.87;;;10.40;99.90;;;;;;5072321;28;20517;-59
2023/02/17 10:20:59;;;;;;;19.43;16.87;;;10.40;99.90;;;;;;5072362;28;20447;-60
2023/02/17 10:23:28;;;;;;;16.20;14.50;;;10.50;99.90;;;;;;5072105;28;20483;-59
2023/02/17 10:26:08;;;;;;;17.47;15.33;;;10.50;99.90;;;;;;5072075;28;20484;-60
2023/02/17 10:28:47;;;;;;;16.80;15.00;;;10.50;99.90;;;;;;5072200;28;20531;-59
2023/02/17 10:31:19;;;;;;;18.33;16.30;;;10.50;99.90;;;;;;5072133;28;20447;-59
2023/02/17 10:33:54;;;;;;;16.33;14.07;;;10.50;99.90;;;;;;5072043;28;20488;-60
2023/02/17 10:36:26;;;;;;;17.83;14.97;;;10.50;99.90;;;;;;5072036;28;20447;-59
2023/02/17 10:38:57;;;;;;;16.90;14.97;;;10.50;99.90;;;;;;5075533;28;20522;-59
2023/02/17 10:41:26;;;;;;;16.37;14.87;;;10.60;99.90;;;;;;5075180;28;21057;-59
2023/02/17 10:43:54;;;;;;;19.00;16.40;;;10.60;99.90;;;;;;5075074;28;20562;-58
2023/02/17 10:46:27;;;;;;;17.03;15.30;;;10.50;99.90;;;;;;5075098;28;20535;-59
2023/02/17 10:48:55;;;;;;;17.33;15.50;;;10.60;99.90;;;;;;5075386;28;20535;-60
2023/02/17 10:51:26;;;;;;;16.60;14.90;;;10.60;99.90;;;;;;5075157;28;20444;-60
2023/02/17 10:53:58;;;;;;;18.80;15.70;;;10.60;99.90;;;;;;5075456;28;20451;-59
2023/02/17 10:56:28;;;;;;;18.10;15.17;;;10.70;99.90;;;;;;5075232;28;20490;-59
2023/02/17 10:58:58;;;;;;;16.80;15.03;;;10.70;99.90;;;;;;5075114;28;20539;-59
2023/02/17 11:01:27;;;;;;;19.00;17.13;;;10.70;99.90;;;;;;5075076;28;20474;-59
2023/02/17 11:04:02;;;;;;;18.60;16.67;;;10.70;99.90;;;;;;5074661;28;20482;-60
2023/02/17 11:06:32;;;;;;;16.17;14.57;;;10.70;99.90;;;;;;5074976;28;20939;-60
2023/02/17 11:09:00;;;;;;;19.67;16.60;;;10.70;99.90;;;;;;5074921;28;20948;-60
2023/02/17 11:11:29;;;;;;;17.20;15.43;;;10.70;99.90;;;;;;5074770;28;20543;-60
2023/02/17 11:14:01;;;;;;;18.13;15.30;;;10.70;99.90;;;;;;5074750;28;20526;-60
2023/02/17 11:16:34;;;;;;;18.10;16.20;;;10.70;99.90;;;;;;5075151;28;20463;-60
2023/02/17 11:19:02;;;;;;;17.90;15.87;;;10.70;99.90;;;;;;5074876;28;20535;-59
2023/02/17 11:21:32;;;;;;;16.40;14.73;;;10.70;99.90;;;;;;5074805;28;20542;-60
2023/02/17 11:24:00;;;;;;;16.57;14.50;;;10.80;99.90;;;;;;5074692;28;20479;-60
2023/02/17 11:26:29;;;;;;;17.17;15.37;;;10.90;99.90;;;;;;5074559;28;20447;-59
2023/02/17 11:29:06;;;;;;;17.50;15.60;;;10.90;99.90;;;;;;5074749;28;20450;-60
2023/02/17 11:31:32;;;;;;;17.17;15.20;;;10.90;99.90;;;;;;5074606;28;21000;-60
2023/02/17 11:34:10;;;;;;;18.90;15.47;;;10.90;99.90;;;;;;5074704;28;20452;-60
2023/02/17 11:36:37;;;;;;;16.00;14.17;;;10.90;99.90;;;;;;5074372;28;20493;-60
2023/02/17 11:39:16;;;;;;;15.80;14.13;;;11.00;99.90;;;;;;5074318;28;20935;-61
2023/02/17 11:41:43;;;;;;;16.90;14.40;;;11.00;99.90;;;;;;5074540;28;20452;-60
2023/02/17 11:44:10;;;;;;;17.20;15.00;;;11.00;99.90;;;;;;5074383;28;20487;-60
2023/02/17 11:46:44;;;;;;;15.37;13.80;;;11.00;99.90;;;;;;5074193;28;20440;-60
2023/02/17 11:49:36;;;;;;;17.57;13.47;;;11.00;99.90;;;;;;5074149;28;20502;-59
2023/02/17 11:52:14;;;;;;;16.07;14.37;;;11.10;99.90;;;;;;5074175;28;20448;-59
2023/02/17 11:54:55;;;;;;;14.37;12.90;;;11.10;99.90;;;;;;5074040;28;20459;-59
2023/02/17 11:57:36;;;;;;;19.90;16.40;;;11.00;99.90;;;;;;5073987;28;20479;-60
2023/02/17 12:00:13;;;;;;;16.83;12.67;;;11.10;99.90;;;;;;5074246;28;20856;-59
2023/02/17 12:02:53;;;;;;;18.80;12.87;;;11.20;99.90;;;;;;5073715;28;21070;-59
2023/02/17 12:05:25;;;;;;;14.03;12.13;;;11.30;99.90;;;;;;5073817;28;20542;-59
2023/02/17 12:08:04;;;;;;;16.93;12.77;;;11.30;99.90;;;;;;5073838;28;20455;-59
2023/02/17 12:10:44;;;;;;;12.73;11.43;;;11.30;99.90;;;;;;5073996;28;20538;-60
2023/02/17 12:13:28;;;;;;;10.80;9.80;;;11.30;99.90;;;;;;5073485;28;20512;-59
2023/02/17 12:16:09;;;;;;;12.43;11.13;;;11.40;99.90;;;;;;5073691;28;20571;-60
2023/02/17 12:18:45;;;;;;;12.73;11.37;;;11.40;99.90;;;;;;5073596;28;20959;-60
2023/02/17 12:21:18;;;;;;;11.03;9.90;;;11.40;99.90;;;;;;5073768;28;20479;-60
2023/02/17 12:24:03;;;;;;;12.10;10.10;;;11.50;99.90;;;;;;5073514;28;20510;-61
2023/02/17 12:26:38;;;;;;;11.30;10.20;;;11.60;99.90;;;;;;5073420;28;20448;-60
2023/02/17 12:29:20;;;;;;;11.40;9.80;;;11.60;99.90;;;;;;5073183;28;20538;-59
2023/02/17 12:32:15;;;;;;;10.77;9.77;;;11.60;99.90;;;;;;5073492;28;20860;-60
2023/02/17 12:34:44;;;;;;;9.20;8.20;;;11.70;99.90;;;;;;5073163;28;20450;-60
2023/02/17 12:37:19;;;;;;;9.97;9.07;;;11.80;99.90;;;;;;5073021;28;20448;-60
2023/02/17 12:39:52;;;;;;;9.00;8.20;;;11.80;99.90;;;;;;5073300;28;20522;-60
2023/02/17 12:42:24;;;;;;;10.10;9.20;;;11.80;99.90;;;;;;5073115;28;20458;-60
2023/02/17 12:44:56;;;;;;;8.87;8.07;;;11.80;99.90;;;;;;5073215;28;20538;-60
2023/02/17 12:47:28;;;;;;;8.10;7.40;;;11.90;99.90;;;;;;5073103;28;20797;-60
2023/02/17 12:50:01;;;;;;;7.90;7.10;;;12.00;99.90;;;;;;5072955;28;20461;-60